Time;durP1;ratioP1;P1;durP2;ratioP2;P2;SDS_P1;SDS_P2;PMS_P1;PMS_P2;Temp;Humidity;BMP_temperature;BMP_pressure;BME280_temperature;BME280_humidity;BME280_pressure;Samples;Min_cycle;Max_cycle;Signal;HPM_P1;HPM_P2
2023/02/18 00:01:16;;;;;;;28.95;10.77;;;11.80;99.90;;;;;;10602901;27;20071;-34
2023/02/18 00:06:21;;;;;;;30.15;11.45;;;10.80;99.90;;;;;;10593647;27;20086;-27
2023/02/18 00:11:23;;;;;;;25.58;10.43;;;10.60;99.90;;;;;;10583407;27;20052;-26
2023/02/18 00:16:28;;;;;;;30.25;12.48;;;11.00;99.90;;;;;;10589241;27;20079;-27
2023/02/18 00:21:30;;;;;;;27.42;10.05;;;11.20;99.90;;;;;;10600196;27;20100;-27
2023/02/18 00:26:33;;;;;;;27.23;9.45;;;10.90;99.90;;;;;;10592803;27;20460;-26
2023/02/18 00:31:39;;;;;;;24.85;8.05;;;12.70;99.90;;;;;;10608692;27;20057;-26
2023/02/18 00:36:41;;;;;;;32.60;13.55;;;11.70;99.90;;;;;;10609869;27;20046;-26
2023/02/18 00:41:44;;;;;;;34.60;12.52;;;10.60;99.90;;;;;;10601781;27;20091;-30
2023/02/18 00:46:48;;;;;;;32.53;12.33;;;10.50;99.90;;;;;;10597039;27;20418;-26
2023/02/18 00:51:50;;;;;;;24.70;10.00;;;10.60;99.90;;;;;;10602532;27;20467;-28
2023/02/18 00:56:52;;;;;;;29.85;13.57;;;10.90;99.90;;;;;;10602859;27;20058;-28
2023/02/18 01:01:55;;;;;;;30.48;13.13;;;10.70;99.90;;;;;;10599536;27;20047;-27
2023/02/18 01:06:57;;;;;;;30.98;13.75;;;11.20;99.90;;;;;;10609193;27;20047;-30
2023/02/18 01:11:59;;;;;;;27.83;11.82;;;10.20;99.90;;;;;;10593356;27;20130;-31
2023/02/18 01:17:02;;;;;;;30.77;10.23;;;10.80;99.90;;;;;;10596753;27;20050;-32
2023/02/18 01:22:05;;;;;;;20.30;9.43;;;10.30;99.90;;;;;;10604729;27;20427;-28
2023/02/18 01:27:07;;;;;;;21.85;7.53;;;11.50;99.90;;;;;;10596713;27;20051;-29
2023/02/18 01:32:11;;;;;;;28.88;11.75;;;12.10;99.90;;;;;;10592256;27;20067;-27
2023/02/18 01:37:13;;;;;;;33.08;11.95;;;10.40;99.90;;;;;;10608399;27;20093;-26
2023/02/18 01:42:19;;;;;;;21.10;9.60;;;10.80;99.90;;;;;;10588226;27;20047;-28
2023/02/18 01:47:22;;;;;;;23.85;9.15;;;11.20;99.90;;;;;;10597608;27;20618;-30
2023/02/18 01:52:27;;;;;;;20.63;8.23;;;12.10;99.90;;;;;;10594888;27;20461;-28
2023/02/18 01:57:32;;;;;;;25.15;9.55;;;12.90;99.90;;;;;;10611002;27;20051;-27
2023/02/18 02:02:39;;;;;;;13.93;6.00;;;11.40;99.90;;;;;;10600293;27;20047;-26
2023/02/18 02:07:42;;;;;;;15.95;6.68;;;12.20;99.90;;;;;;10589519;27;20079;-28
2023/02/18 02:12:56;;;;;;;21.58;9.02;;;12.40;99.90;;;;;;10602039;27;20047;-25
2023/02/18 02:18:13;;;;;;;22.25;9.82;;;11.10;99.90;;;;;;10601666;27;20039;-26
2023/02/18 02:23:57;;;;;;;27.08;11.45;;;10.80;99.90;;;;;;10600391;27;20047;-27
2023/02/18 02:29:15;;;;;;;18.73;7.90;;;10.60;99.90;;;;;;10535749;27;20540;-33
2023/02/18 02:34:49;;;;;;;17.10;8.40;;;11.50;99.90;;;;;;10589994;27;20043;-28
2023/02/18 02:40:02;;;;;;;19.55;7.65;;;10.60;99.90;;;;;;10592742;27;20130;-31
2023/02/18 02:45:11;;;;;;;16.15;6.38;;;11.10;99.90;;;;;;10605704;27;20075;-27
2023/02/18 02:50:20;;;;;;;22.65;7.75;;;10.90;99.90;;;;;;10595847;27;20131;-28
2023/02/18 02:55:22;;;;;;;29.98;7.25;;;10.50;99.90;;;;;;10608826;27;20049;-28
2023/02/18 03:00:34;;;;;;;28.75;7.13;;;10.80;99.90;;;;;;10599873;27;20130;-27
2023/02/18 03:05:51;;;;;;;26.85;7.90;;;10.40;99.90;;;;;;10603337;27;20146;-30
2023/02/18 03:11:00;;;;;;;19.92;7.82;;;10.50;99.90;;;;;;10594597;27;20039;-27
2023/02/18 03:16:13;;;;;;;20.88;8.20;;;10.40;99.90;;;;;;10609370;27;20047;-29
2023/02/18 03:21:21;;;;;;;17.35;6.32;;;10.40;99.90;;;;;;10594096;28;20120;-26
2023/02/18 03:26:25;;;;;;;16.75;6.18;;;11.20;99.90;;;;;;10598779;28;20039;-29
2023/02/18 03:31:29;;;;;;;10.18;5.10;;;11.10;99.90;;;;;;10613718;27;20138;-28
2023/02/18 03:36:34;;;;;;;20.67;7.30;;;11.70;99.90;;;;;;10601717;27;20044;-27
2023/02/18 03:41:36;;;;;;;21.77;7.30;;;10.70;99.90;;;;;;10603501;27;20511;-29
2023/02/18 03:46:41;;;;;;;15.87;6.07;;;10.80;99.90;;;;;;10610801;27;20071;-30
2023/02/18 03:51:46;;;;;;;30.30;7.95;;;10.60;99.90;;;;;;10613583;27;20039;-27
2023/02/18 03:56:47;;;;;;;33.42;8.68;;;10.50;99.90;;;;;;10613482;27;20043;-28
2023/02/18 04:01:49;;;;;;;44.45;10.30;;;10.50;99.90;;;;;;10614945;27;20047;-27
2023/02/18 04:06:53;;;;;;;21.90;5.93;;;9.80;99.90;;;;;;10615052;27;20088;-25
2023/02/18 04:11:55;;;;;;;23.63;6.72;;;10.30;99.90;;;;;;10615393;27;20543;-30
2023/02/18 04:16:56;;;;;;;23.42;7.78;;;10.90;99.90;;;;;;10607200;27;20058;-26
2023/02/18 04:22:00;;;;;;;29.58;7.88;;;10.30;99.90;;;;;;10608579;27;20047;-26
2023/02/18 04:27:02;;;;;;;30.17;8.30;;;10.40;99.90;;;;;;10607868;27;20054;-26
2023/02/18 04:32:04;;;;;;;26.90;7.95;;;10.20;99.90;;;;;;10597848;27;20040;-26
2023/02/18 04:37:07;;;;;;;34.47;9.53;;;10.60;99.90;;;;;;10601745;27;20050;-26
2023/02/18 04:42:09;;;;;;;29.85;9.00;;;10.00;99.90;;;;;;10611402;27;20647;-28
2023/02/18 04:47:11;;;;;;;28.38;9.00;;;10.30;99.90;;;;;;10612362;27;20720;-26
2023/02/18 04:52:14;;;;;;;20.58;7.78;;;10.40;99.90;;;;;;10607547;27;20123;-28
2023/02/18 04:57:16;;;;;;;40.75;11.55;;;10.80;99.90;;;;;;10602501;27;20053;-27
2023/02/18 05:02:18;;;;;;;36.30;9.80;;;9.80;99.90;;;;;;10605966;27;20540;-27
2023/02/18 05:07:21;;;;;;;24.38;7.57;;;10.10;99.90;;;;;;10610683;27;20092;-27
2023/02/18 05:12:23;;;;;;;27.52;8.35;;;10.70;99.90;;;;;;10584424;27;20437;-28
2023/02/18 05:17:25;;;;;;;22.05;8.20;;;10.50;99.90;;;;;;10593828;27;20151;-26
2023/02/18 05:22:28;;;;;;;31.95;9.98;;;10.40;99.90;;;;;;10612342;27;20075;-29
2023/02/18 05:27:30;;;;;;;37.45;10.35;;;10.40;99.90;;;;;;10610290;27;20043;-27
2023/02/18 05:32:32;;;;;;;40.33;12.63;;;10.00;99.90;;;;;;10610646;27;20491;-26
2023/02/18 05:37:35;;;;;;;40.85;11.20;;;9.80;99.90;;;;;;10605104;27;20051;-28
2023/02/18 05:42:37;;;;;;;42.50;11.57;;;10.20;99.90;;;;;;10600405;27;20073;-31
2023/02/18 05:47:39;;;;;;;61.88;12.32;;;10.30;99.90;;;;;;10601978;27;20457;-33
2023/02/18 05:52:42;;;;;;;64.88;12.80;;;10.20;99.90;;;;;;10589882;27;20704;-32
2023/02/18 05:57:44;;;;;;;47.40;9.13;;;9.80;99.90;;;;;;10595792;27;20135;-29
2023/02/18 06:02:46;;;;;;;73.35;13.18;;;10.20;99.90;;;;;;10610662;27;20154;-26
2023/02/18 06:07:49;;;;;;;28.23;6.85;;;10.00;99.90;;;;;;10601615;27;20046;-28
2023/02/18 06:12:51;;;;;;;52.03;8.52;;;11.20;99.90;;;;;;10597519;27;20087;-27
2023/02/18 06:17:53;;;;;;;36.38;6.95;;;10.00;99.90;;;;;;10594742;27;20047;-26
2023/02/18 06:22:56;;;;;;;33.05;6.60;;;10.70;99.90;;;;;;10583076;27;20078;-28
2023/02/18 06:27:58;;;;;;;32.58;6.78;;;11.30;99.90;;;;;;10595621;27;20041;-28
2023/02/18 06:33:03;;;;;;;24.98;5.82;;;10.40;99.90;;;;;;10582660;27;20119;-29
2023/02/18 06:38:06;;;;;;;30.92;5.32;;;10.80;99.90;;;;;;10589047;27;20149;-26
2023/02/18 06:43:08;;;;;;;45.90;5.55;;;10.70;99.90;;;;;;10583790;27;20111;-27
2023/02/18 06:48:10;;;;;;;36.90;4.53;;;9.70;99.90;;;;;;10580178;27;20154;-29
2023/02/18 06:53:13;;;;;;;30.45;4.88;;;10.60;99.90;;;;;;10587983;27;20479;-27
2023/02/18 06:58:16;;;;;;;38.05;5.25;;;10.50;99.90;;;;;;10595061;27;20079;-29
2023/02/18 07:15:10;;;;;;;46.42;6.60;;;11.10;99.90;;;;;;10515677;27;20152;-26
2023/02/18 07:20:12;;;;;;;33.55;5.15;;;10.40;99.90;;;;;;10511806;28;20058;-27
2023/02/18 07:25:14;;;;;;;41.17;6.05;;;10.30;99.90;;;;;;10509031;28;20209;-29
2023/02/18 07:30:19;;;;;;;32.93;5.03;;;10.70;99.90;;;;;;10511745;28;20481;-27
2023/02/18 07:35:21;;;;;;;37.75;5.68;;;10.30;99.90;;;;;;10515984;28;20053;-27
2023/02/18 07:40:23;;;;;;;19.63;2.80;;;10.80;99.90;;;;;;10494445;28;20566;-27
2023/02/18 07:45:26;;;;;;;49.65;5.95;;;11.10;99.90;;;;;;10503853;28;20135;-27
2023/02/18 07:50:33;;;;;;;27.88;3.95;;;10.40;99.90;;;;;;10509673;28;20106;-27
2023/02/18 07:55:51;;;;;;;30.30;5.25;;;11.10;99.90;;;;;;10498066;28;20048;-29
2023/02/18 08:00:55;;;;;;;52.70;6.90;;;11.20;99.90;;;;;;10495922;28;20055;-28
2023/02/18 08:05:58;;;;;;;42.08;5.47;;;10.40;99.90;;;;;;10486869;28;20056;-29
2023/02/18 08:11:01;;;;;;;;;;;10.30;99.90;;;;;;10502900;28;20394;-28
2023/02/18 08:16:05;;;;;;;;;;;9.90;99.90;;;;;;10493388;28;19931;-33
2023/02/18 08:21:06;;;;;;;48.08;6.60;;;11.20;99.90;;;;;;10489401;28;20023;-28
2023/02/18 08:26:09;;;;;;;40.60;4.90;;;9.80;99.90;;;;;;10474388;28;20125;-33
2023/02/18 08:31:19;;;;;;;36.17;4.37;;;11.00;99.90;;;;;;10470888;28;20499;-26
2023/02/18 08:36:21;;;;;;;39.30;5.40;;;10.50;99.90;;;;;;10473867;28;20040;-25
2023/02/18 08:41:23;;;;;;;34.17;5.43;;;10.40;99.90;;;;;;10476729;28;20052;-27
2023/02/18 08:46:27;;;;;;;36.53;5.25;;;10.70;99.90;;;;;;10478866;28;20389;-26
2023/02/18 08:51:30;;;;;;;38.80;4.05;;;9.90;99.90;;;;;;10475864;28;20500;-27
2023/02/18 08:56:32;;;;;;;35.75;5.28;;;11.20;99.90;;;;;;10482069;28;20045;-27
2023/02/18 09:01:35;;;;;;;40.67;4.43;;;10.80;99.90;;;;;;10477441;28;20048;-34
2023/02/18 09:06:38;;;;;;;34.78;5.03;;;11.10;99.90;;;;;;10470855;28;20049;-29
2023/02/18 09:11:40;;;;;;;26.48;4.32;;;10.40;99.90;;;;;;10489369;28;20060;-26
2023/02/18 09:16:43;;;;;;;45.25;6.07;;;10.60;99.90;;;;;;10483079;28;20098;-28
2023/02/18 09:21:45;;;;;;;29.92;4.78;;;10.60;99.90;;;;;;10477975;28;20094;-26
2023/02/18 09:26:47;;;;;;;33.70;5.80;;;11.30;99.90;;;;;;10478129;28;20139;-27
2023/02/18 09:31:50;;;;;;;18.07;4.00;;;11.00;99.90;;;;;;10474834;28;20049;-27
2023/02/18 09:36:52;;;;;;;45.78;5.07;;;11.20;99.90;;;;;;10469626;28;20409;-28
2023/02/18 09:41:57;;;;;;;19.85;3.75;;;11.30;99.90;;;;;;10462104;28;20554;-29
2023/02/18 09:47:05;;;;;;;33.53;5.22;;;10.70;99.90;;;;;;10477800;28;20135;-27
2023/02/18 09:52:13;;;;;;;29.15;3.97;;;10.50;99.90;;;;;;10464728;28;20057;-30
2023/02/18 09:57:24;;;;;;;16.13;2.75;;;10.40;99.90;;;;;;10467691;28;20135;-24
2023/02/18 10:02:28;;;;;;;13.98;2.10;;;10.70;99.90;;;;;;10476781;28;20056;-24
2023/02/18 10:07:33;;;;;;;35.13;4.85;;;11.90;99.90;;;;;;10482695;28;20480;-26
2023/02/18 10:12:36;;;;;;;32.38;5.03;;;10.70;99.90;;;;;;10475089;28;20080;-26
2023/02/18 10:17:39;;;;;;;28.77;4.50;;;11.00;99.90;;;;;;10473023;28;20048;-27
2023/02/18 10:22:41;;;;;;;26.98;3.80;;;11.20;99.90;;;;;;10480173;28;20136;-27
2023/02/18 10:27:43;;;;;;;37.20;3.30;;;11.30;99.90;;;;;;10483213;28;20131;-27
2023/02/18 10:32:46;;;;;;;19.20;4.18;;;10.90;99.90;;;;;;10487068;28;20048;-27
2023/02/18 10:38:00;;;;;;;25.63;4.72;;;12.00;99.90;;;;;;10484862;28;20036;-25
2023/02/18 10:43:13;;;;;;;21.60;3.45;;;11.30;99.90;;;;;;10478328;28;20110;-25
2023/02/18 10:48:32;;;;;;;30.88;3.63;;;11.60;99.90;;;;;;10471757;28;20132;-26
2023/02/18 10:53:37;;;;;;;34.60;4.22;;;11.70;99.90;;;;;;10482611;28;20055;-28
2023/02/18 10:58:45;;;;;;;27.40;3.83;;;11.60;99.90;;;;;;10475845;28;20050;-26
2023/02/18 11:03:51;;;;;;;19.45;2.83;;;11.70;99.90;;;;;;10469873;28;20118;-26
2023/02/18 11:08:56;;;;;;;30.08;3.97;;;11.90;99.90;;;;;;10486483;28;20068;-28
2023/02/18 11:14:00;;;;;;;20.95;3.50;;;11.90;99.90;;;;;;10485603;28;20055;-25
2023/02/18 11:19:03;;;;;;;20.63;3.55;;;11.40;99.90;;;;;;10467913;28;20072;-25
2023/02/18 11:24:09;;;;;;;20.80;3.30;;;11.70;99.90;;;;;;10475345;28;20048;-25
2023/02/18 11:29:19;;;;;;;13.10;1.98;;;12.00;99.90;;;;;;10475690;28;20049;-25
2023/02/18 11:34:26;;;;;;;21.50;4.07;;;12.00;99.90;;;;;;10478191;28;20852;-28
2023/02/18 11:39:29;;;;;;;24.10;3.40;;;12.20;99.90;;;;;;10484296;28;20071;-25
2023/02/18 11:44:35;;;;;;;28.45;4.97;;;11.80;99.90;;;;;;10462229;28;20132;-30
2023/02/18 11:49:39;;;;;;;11.35;3.33;;;11.90;99.90;;;;;;10468732;28;20106;-27
2023/02/18 11:54:41;;;;;;;36.55;4.15;;;12.00;99.90;;;;;;10475097;28;20135;-27
2023/02/18 11:59:44;;;;;;;18.55;2.22;;;12.10;99.90;;;;;;10477282;28;20135;-28
2023/02/18 12:04:52;;;;;;;16.98;3.20;;;11.90;99.90;;;;;;10472595;28;20148;-25
2023/02/18 12:09:58;;;;;;;16.95;3.15;;;12.30;99.90;;;;;;10476098;28;20072;-30
2023/02/18 12:15:00;;;;;;;19.30;2.92;;;12.00;99.90;;;;;;10461257;28;20084;-26
2023/02/18 12:20:32;;;;;;;12.63;2.50;;;11.60;99.90;;;;;;10470512;28;20456;-30
2023/02/18 12:25:41;;;;;;;21.35;3.25;;;12.40;99.90;;;;;;10460215;28;20481;-25
2023/02/18 12:31:11;;;;;;;22.77;4.05;;;12.10;99.90;;;;;;10470992;28;20140;-26
2023/02/18 12:36:29;;;;;;;16.00;2.70;;;11.80;99.90;;;;;;10485979;28;20127;-23
2023/02/18 12:42:01;;;;;;;14.23;2.83;;;11.80;99.90;;;;;;10482531;28;20127;-27
2023/02/18 12:47:28;;;;;;;22.48;3.20;;;12.10;99.90;;;;;;10468130;28;20224;-26
2023/02/18 12:52:40;;;;;;;18.48;3.58;;;12.10;99.90;;;;;;10486345;28;20109;-26
2023/02/18 12:57:47;;;;;;;23.87;4.50;;;11.90;99.90;;;;;;10484865;28;20501;-27
2023/02/18 13:03:37;;;;;;;25.25;3.60;;;12.00;99.90;;;;;;10479342;28;20135;-26
2023/02/18 13:08:55;;;;;;;16.05;3.05;;;12.40;99.90;;;;;;10495331;28;20072;-26
2023/02/18 13:14:04;;;;;;;17.30;3.13;;;11.90;99.90;;;;;;10483138;28;20054;-26
2023/02/18 13:19:16;;;;;;;24.75;2.78;;;12.70;99.90;;;;;;10488801;28;20416;-27
2023/02/18 13:24:26;;;;;;;24.73;2.45;;;12.10;99.90;;;;;;10479181;28;20049;-26
2023/02/18 13:29:34;;;;;;;16.05;2.00;;;12.20;99.90;;;;;;10472985;28;20044;-28
2023/02/18 13:34:42;;;;;;;19.17;2.75;;;12.80;99.90;;;;;;10469588;28;20173;-27
2023/02/18 13:39:51;;;;;;;21.83;3.05;;;12.30;99.90;;;;;;10471337;28;20043;-26
2023/02/18 13:45:23;;;;;;;20.15;2.75;;;12.40;99.90;;;;;;10472020;28;20040;-26
2023/02/18 13:50:28;;;;;;;18.80;2.70;;;12.90;99.90;;;;;;10489426;28;20052;-24
2023/02/18 13:55:39;;;;;;;35.80;3.22;;;12.50;99.90;;;;;;10481881;28;20076;-26
2023/02/18 14:00:46;;;;;;;23.73;2.78;;;12.80;99.90;;;;;;10486863;28;20079;-28
2023/02/18 14:05:47;;;;;;;18.73;3.05;;;13.00;99.90;;;;;;10486539;28;20071;-28
2023/02/18 14:11:37;;;;;;;23.17;3.10;;;13.00;99.90;;;;;;10486929;28;20460;-26
2023/02/18 14:17:14;;;;;;;16.85;2.95;;;12.70;99.90;;;;;;10351145;28;20054;-26
2023/02/18 14:22:28;;;;;;;16.58;2.90;;;12.50;99.90;;;;;;10451141;28;20624;-30
2023/02/18 14:27:30;;;;;;;23.65;4.10;;;12.50;99.90;;;;;;10467196;28;20421;-26
2023/02/18 14:32:34;;;;;;;19.33;3.00;;;12.10;99.90;;;;;;10484484;28;20048;-25
2023/02/18 14:38:06;;;;;;;14.98;2.58;;;12.50;99.90;;;;;;10485525;28;20044;-25
2023/02/18 14:43:20;;;;;;;20.55;3.60;;;12.80;99.90;;;;;;10493203;28;20468;-25
2023/02/18 14:48:50;;;;;;;24.98;3.35;;;12.80;99.90;;;;;;10494861;28;20056;-26
2023/02/18 14:53:52;;;;;;;9.20;2.03;;;12.20;99.90;;;;;;10487137;28;20121;-24
2023/02/18 14:58:59;;;;;;;19.33;3.00;;;13.40;99.90;;;;;;10482135;28;20135;-26
2023/02/18 15:04:03;;;;;;;26.63;3.63;;;13.20;99.90;;;;;;10464307;28;20064;-26
2023/02/18 15:09:14;;;;;;;22.02;2.97;;;13.30;99.90;;;;;;10487233;28;20060;-26
2023/02/18 15:14:20;;;;;;;25.15;3.35;;;13.40;99.90;;;;;;10471504;28;20097;-26
2023/02/18 15:19:26;;;;;;;25.27;3.15;;;13.70;99.90;;;;;;10470841;28;20048;-26
2023/02/18 15:24:32;;;;;;;28.13;4.75;;;13.40;99.90;;;;;;10474700;28;20162;-30
2023/02/18 15:29:35;;;;;;;16.75;3.53;;;12.60;99.90;;;;;;10461225;28;20452;-26
2023/02/18 15:34:39;;;;;;;24.92;4.13;;;12.50;99.90;;;;;;10478901;28;20072;-25
2023/02/18 15:39:42;;;;;;;27.52;5.03;;;13.20;99.90;;;;;;10472806;28;20053;-24
2023/02/18 15:44:47;;;;;;;32.05;5.03;;;12.20;99.90;;;;;;10487134;28;20579;-25
2023/02/18 15:49:53;;;;;;;28.90;4.13;;;12.80;99.90;;;;;;10471225;28;20040;-25
2023/02/18 15:55:01;;;;;;;27.02;4.95;;;12.20;99.90;;;;;;10472452;28;20056;-25
2023/02/18 16:00:06;;;;;;;28.95;3.78;;;12.40;99.90;;;;;;10485130;28;20122;-25
2023/02/18 16:05:14;;;;;;;20.08;2.95;;;12.10;99.90;;;;;;10475226;28;20102;-26
2023/02/18 16:10:20;;;;;;;29.73;3.72;;;13.00;99.90;;;;;;10472991;28;20157;-23
2023/02/18 16:15:26;;;;;;;29.58;4.90;;;13.20;99.90;;;;;;10475218;28;20160;-26
2023/02/18 16:20:34;;;;;;;31.38;4.95;;;12.70;99.90;;;;;;10477073;28;20081;-26
2023/02/18 16:25:43;;;;;;;21.05;3.47;;;11.80;99.90;;;;;;10476694;28;20825;-25
2023/02/18 16:30:45;;;;;;;36.05;5.38;;;12.80;99.90;;;;;;10461815;28;20059;-26
2023/02/18 16:35:48;;;;;;;37.63;4.30;;;11.90;99.90;;;;;;10474969;28;20049;-26
2023/02/18 16:40:51;;;;;;;30.50;4.18;;;11.90;99.90;;;;;;10475018;28;20040;-26
2023/02/18 16:45:54;;;;;;;;;;;12.80;99.90;;;;;;10473738;28;20079;-25
2023/02/18 16:50:59;;;;;;;25.17;3.30;;;13.30;99.90;;;;;;10490364;28;19963;-25
2023/02/18 16:56:01;;;;;;;39.58;6.18;;;13.10;99.90;;;;;;10477918;28;20678;-23
2023/02/18 17:01:03;;;;;;;45.17;5.10;;;12.60;99.90;;;;;;10483551;28;20618;-28
2023/02/18 17:06:07;;;;;;;33.00;5.47;;;13.10;99.90;;;;;;10480187;28;20891;-27
2023/02/18 17:11:19;;;;;;;35.83;5.82;;;12.10;99.90;;;;;;10481844;28;20132;-26
2023/02/18 17:16:21;;;;;;;40.57;7.07;;;11.30;99.90;;;;;;10481936;28;20084;-25
2023/02/18 17:21:26;;;;;;;39.70;4.65;;;11.20;99.90;;;;;;10491497;28;20160;-25
2023/02/18 17:26:29;;;;;;;29.88;5.03;;;10.90;99.90;;;;;;10491743;28;20055;-26
2023/02/18 17:31:34;;;;;;;36.17;5.13;;;13.70;99.90;;;;;;10484377;28;20102;-24
2023/02/18 17:36:44;;;;;;;49.45;6.10;;;12.40;99.90;;;;;;10483131;28;20106;-25
2023/02/18 17:41:45;;;;;;;34.85;4.63;;;12.20;99.90;;;;;;10483202;28;20040;-27
2023/02/18 17:46:48;;;;;;;51.40;6.70;;;12.20;99.90;;;;;;10468698;28;20473;-29
2023/02/18 17:51:51;;;;;;;;;;;11.80;99.90;;;;;;10484070;28;20045;-27
2023/02/18 17:56:54;;;;;;;40.25;6.25;;;11.40;99.90;;;;;;10474698;28;19977;-25
2023/02/18 18:01:56;;;;;;;42.20;5.72;;;11.50;99.90;;;;;;10486051;28;20048;-25
2023/02/18 18:06:59;;;;;;;35.03;5.88;;;11.90;99.90;;;;;;10491870;28;20130;-26
2023/02/18 18:12:00;;;;;;;;;;;11.60;99.90;;;;;;10480649;28;20052;-25
2023/02/18 18:17:02;;;;;;;21.83;4.03;;;12.90;99.90;;;;;;10492842;28;20245;-26
2023/02/18 18:22:05;;;;;;;28.30;5.47;;;12.30;99.90;;;;;;10481208;28;20487;-25
2023/02/18 18:27:09;;;;;;;40.35;4.88;;;11.80;99.90;;;;;;10490521;28;20076;-25
2023/02/18 18:32:11;;;;;;;42.05;5.68;;;11.70;99.90;;;;;;10477065;28;20071;-25
2023/02/18 18:37:14;;;;;;;32.70;5.32;;;11.80;99.90;;;;;;10487125;28;20076;-31
2023/02/18 18:42:16;;;;;;;48.08;7.72;;;11.60;99.90;;;;;;10472440;28;20055;-28
2023/02/18 18:47:18;;;;;;;43.97;5.35;;;11.20;99.90;;;;;;10478004;28;20481;-27
2023/02/18 18:52:21;;;;;;;31.08;4.95;;;10.80;99.90;;;;;;10480447;28;20048;-24
2023/02/18 18:57:23;;;;;;;30.27;5.07;;;11.10;99.90;;;;;;10475785;28;20084;-27
2023/02/18 19:02:24;;;;;;;47.38;7.35;;;11.30;99.90;;;;;;10486233;28;20052;-26
2023/02/18 19:07:27;;;;;;;44.42;6.93;;;11.40;99.90;;;;;;10485173;28;20151;-26
2023/02/18 19:12:29;;;;;;;;;;;10.90;99.90;;;;;;10472913;28;20060;-27
2023/02/18 19:17:31;;;;;;;60.47;10.30;;;10.60;99.90;;;;;;10475279;28;20043;-27
2023/02/18 19:22:34;;;;;;;55.25;6.20;;;10.40;99.90;;;;;;10471082;28;20044;-26
2023/02/18 19:27:37;;;;;;;42.08;6.03;;;11.30;99.90;;;;;;10482413;28;20125;-27
2023/02/18 19:32:40;;;;;;;38.42;5.93;;;10.50;99.90;;;;;;10472485;28;20067;-26
2023/02/18 19:37:43;;;;;;;29.53;5.27;;;10.90;99.90;;;;;;10480105;28;20132;-31
2023/02/18 19:42:45;;;;;;;21.10;4.50;;;12.20;99.90;;;;;;10469390;28;20041;-26
2023/02/18 19:47:47;;;;;;;14.52;3.65;;;12.00;99.90;;;;;;10473601;28;20158;-27
2023/02/18 19:52:53;;;;;;;28.42;4.78;;;12.40;99.90;;;;;;10484261;28;20136;-26
2023/02/18 19:57:55;;;;;;;32.25;5.00;;;11.90;99.90;;;;;;10484544;28;20040;-28
2023/02/18 20:02:57;;;;;;;34.08;4.50;;;11.80;99.90;;;;;;10473599;28;20049;-27
2023/02/18 20:08:00;;;;;;;46.30;7.53;;;12.80;99.90;;;;;;10481087;28;20503;-26
2023/02/18 20:13:03;;;;;;;24.90;5.55;;;11.60;99.90;;;;;;10480489;28;20070;-28
2023/02/18 20:18:05;;;;;;;;;;;11.80;99.90;;;;;;10477838;28;20076;-30
2023/02/18 20:23:08;;;;;;;68.18;8.40;;;12.60;99.90;;;;;;10486531;28;19967;-30
2023/02/18 20:28:10;;;;;;;62.45;7.70;;;10.80;99.90;;;;;;10476646;28;20040;-31
2023/02/18 20:33:12;;;;;;;42.53;5.97;;;11.80;99.90;;;;;;10465479;28;20139;-27
2023/02/18 20:38:15;;;;;;;44.30;7.60;;;12.30;99.90;;;;;;10488255;28;20151;-25
2023/02/18 20:43:17;;;;;;;52.72;6.63;;;13.10;99.90;;;;;;10483824;28;20128;-26
2023/02/18 20:48:18;;;;;;;24.95;5.25;;;12.10;99.90;;;;;;10479323;28;20495;-25
2023/02/18 20:53:22;;;;;;;38.97;6.28;;;12.30;99.90;;;;;;10476312;28;20076;-25
2023/02/18 20:58:24;;;;;;;47.85;6.88;;;12.20;99.90;;;;;;10481550;28;21351;-25
2023/02/18 21:03:26;;;;;;;36.60;5.10;;;11.60;99.90;;;;;;10481691;28;20147;-26
2023/02/18 21:08:29;;;;;;;30.83;5.50;;;12.40;99.90;;;;;;10479751;28;20110;-25
2023/02/18 21:13:33;;;;;;;28.63;5.05;;;13.00;99.90;;;;;;10486338;28;20162;-27
2023/02/18 21:18:35;;;;;;;40.75;5.80;;;13.60;99.90;;;;;;10481966;28;20079;-26
2023/02/18 21:23:39;;;;;;;54.30;7.67;;;12.00;99.90;;;;;;10484964;28;20481;-26
2023/02/18 21:28:42;;;;;;;49.35;8.70;;;12.10;99.90;;;;;;10473226;28;20068;-26
2023/02/18 21:33:44;;;;;;;45.58;6.22;;;11.90;99.90;;;;;;10479008;28;20072;-27
2023/02/18 21:38:51;;;;;;;39.50;6.07;;;11.50;99.90;;;;;;10487485;28;20140;-27
2023/02/18 21:43:53;;;;;;;35.28;6.07;;;11.40;99.90;;;;;;10465884;28;20048;-30
2023/02/18 21:49:01;;;;;;;30.17;4.67;;;12.70;99.90;;;;;;10458958;28;20049;-26
2023/02/18 21:54:05;;;;;;;30.63;4.95;;;12.20;99.90;;;;;;10474025;28;20189;-27
2023/02/18 21:59:07;;;;;;;40.53;5.38;;;10.90;99.90;;;;;;10469245;28;20792;-29
2023/02/18 22:04:09;;;;;;;37.47;5.35;;;11.10;99.90;;;;;;10482093;28;20107;-26
2023/02/18 22:09:13;;;;;;;42.58;5.18;;;10.90;99.90;;;;;;10484438;28;20042;-26
2023/02/18 22:14:16;;;;;;;29.98;4.70;;;11.50;99.90;;;;;;10467707;28;20048;-25
2023/02/18 22:19:20;;;;;;;40.63;5.70;;;10.90;99.90;;;;;;10481342;28;20136;-27
2023/02/18 22:24:23;;;;;;;50.08;8.10;;;10.50;99.90;;;;;;10480796;28;20065;-26
2023/02/18 22:29:25;;;;;;;36.72;4.80;;;10.80;99.90;;;;;;10471495;28;20162;-27
2023/02/18 22:34:27;;;;;;;25.15;4.85;;;10.50;99.90;;;;;;10479655;28;20369;-28
2023/02/18 22:39:30;;;;;;;26.48;5.07;;;10.20;99.90;;;;;;10470929;28;20053;-29
2023/02/18 22:44:32;;;;;;;26.73;4.85;;;11.10;99.90;;;;;;10465548;28;20136;-27
2023/02/18 22:49:34;;;;;;;38.97;5.45;;;10.90;99.90;;;;;;10475497;28;20055;-26
2023/02/18 22:54:37;;;;;;;18.80;3.80;;;10.50;99.90;;;;;;10474775;28;20083;-27
2023/02/18 22:59:40;;;;;;;33.95;5.90;;;10.60;99.90;;;;;;10484286;28;20148;-31
2023/02/18 23:04:42;;;;;;;;;;;10.80;99.90;;;;;;10465201;28;20059;-29
2023/02/18 23:09:45;;;;;;;29.83;4.07;;;10.70;99.90;;;;;;10481315;28;19936;-27
2023/02/18 23:14:47;;;;;;;23.00;3.95;;;10.50;99.90;;;;;;10486018;28;20568;-31
2023/02/18 23:19:51;;;;;;;31.52;4.47;;;10.60;99.90;;;;;;10478916;28;20413;-30
2023/02/18 23:24:54;;;;;;;28.83;4.15;;;10.70;99.90;;;;;;10487150;28;20098;-25
2023/02/18 23:29:56;;;;;;;27.15;4.15;;;10.80;99.90;;;;;;10480747;28;20109;-28
2023/02/18 23:34:58;;;;;;;13.47;3.13;;;10.40;99.90;;;;;;10476817;28;20044;-28
2023/02/18 23:40:01;;;;;;;18.50;2.88;;;11.20;99.90;;;;;;10484409;28;20128;-27
2023/02/18 23:45:03;;;;;;;17.50;3.83;;;11.00;99.90;;;;;;10475212;28;20044;-28
2023/02/18 23:50:06;;;;;;;17.10;4.13;;;11.10;99.90;;;;;;10481023;28;20139;-25
2023/02/18 23:55:09;;;;;;;15.40;2.88;;;10.40;99.90;;;;;;10484089;28;20131;-26
